createdAt,value
2023-02-24T00:01:51.447Z,101030.25
2023-02-24T00:04:21.804Z,101027.28
2023-02-24T00:06:49.331Z,101029.09
2023-02-24T00:09:24.835Z,101030.09
2023-02-24T00:12:06.264Z,101024.97
2023-02-24T00:14:35.990Z,101016.31
2023-02-24T00:17:03.154Z,101017.31
2023-02-24T00:19:35.341Z,101016.81
2023-02-24T00:22:03.144Z,101020.44
2023-02-24T00:24:31.172Z,101008.28
2023-02-24T00:27:07.662Z,101007.16
2023-02-24T00:29:37.662Z,100998.66
2023-02-24T00:32:08.095Z,101005.03
2023-02-24T00:34:36.516Z,101007.44
2023-02-24T00:37:04.148Z,101007.81
2023-02-24T00:39:34.827Z,101003.00
2023-02-24T00:42:05.677Z,101004.84
2023-02-24T00:44:36.281Z,101003.44
2023-02-24T00:47:05.013Z,101001.56
2023-02-24T00:49:32.637Z,100999.94
2023-02-24T00:52:00.280Z,100999.25
2023-02-24T00:54:28.492Z,100994.47
2023-02-24T00:56:56.391Z,100996.47
2023-02-24T00:59:24.198Z,100993.97
2023-02-24T01:01:52.069Z,100986.41
2023-02-24T01:04:20.243Z,100988.84
2023-02-24T01:07:11.904Z,100977.69
2023-02-24T01:09:39.820Z,100982.75
2023-02-24T01:12:29.200Z,100978.56
2023-02-24T01:15:09.190Z,100969.22
2023-02-24T01:17:37.721Z,100966.56
2023-02-24T01:20:16.000Z,100965.47
2023-02-24T01:22:46.853Z,100966.44
2023-02-24T01:25:14.436Z,100965.56
2023-02-24T01:27:41.941Z,100965.41
2023-02-24T01:30:16.847Z,100960.34
2023-02-24T01:32:44.382Z,100954.97
2023-02-24T01:35:12.307Z,100961.78
2023-02-24T01:37:40.121Z,100964.44
2023-02-24T01:40:12.131Z,100963.53
2023-02-24T01:42:42.465Z,100955.97
2023-02-24T01:45:15.018Z,100967.00
2023-02-24T01:47:41.607Z,100963.69
2023-02-24T01:50:09.877Z,100954.97
2023-02-24T01:52:37.628Z,100959.03
2023-02-24T01:55:13.395Z,100950.41
2023-02-24T01:57:41.535Z,100945.13
2023-02-24T02:00:20.441Z,100936.97
2023-02-24T02:02:54.679Z,100938.59
2023-02-24T02:05:22.678Z,100939.97
2023-02-24T02:07:51.376Z,100937.31
2023-02-24T02:10:19.556Z,100933.81
2023-02-24T02:12:46.666Z,100930.41
2023-02-24T02:15:14.528Z,100928.81
2023-02-24T02:17:59.657Z,100922.97
2023-02-24T02:20:32.726Z,100929.81
2023-02-24T02:23:18.077Z,100932.31
2023-02-24T02:26:05.955Z,100925.28
2023-02-24T02:28:45.539Z,100928.16
2023-02-24T02:31:46.773Z,100929.34
2023-02-24T02:34:27.751Z,100925.72
2023-02-24T02:37:00.535Z,100923.16
2023-02-24T02:39:47.318Z,100929.81
2023-02-24T02:42:38.734Z,100923.47
2023-02-24T02:45:33.731Z,100928.16
2023-02-24T02:48:17.624Z,100927.38
2023-02-24T02:51:18.965Z,100930.03
2023-02-24T02:53:59.393Z,100924.59
2023-02-24T02:56:30.916Z,100932.41
2023-02-24T02:58:58.707Z,100925.03
2023-02-24T03:01:28.530Z,100922.63
2023-02-24T03:03:56.922Z,100931.41
2023-02-24T03:06:28.130Z,100920.81
2023-02-24T03:09:11.529Z,100921.22
2023-02-24T03:11:59.778Z,100919.69
2023-02-24T03:14:28.847Z,100915.38
2023-02-24T03:16:55.894Z,100916.19
2023-02-24T03:19:37.349Z,100915.84
2023-02-24T03:22:12.518Z,100915.84
2023-02-24T03:24:41.150Z,100919.34
2023-02-24T03:27:34.482Z,100924.53
2023-02-24T03:30:09.717Z,100921.09
2023-02-24T03:32:58.612Z,100921.69
2023-02-24T03:35:38.181Z,100920.69
2023-02-24T03:38:06.426Z,100928.25
2023-02-24T03:40:36.157Z,100929.06
2023-02-24T03:43:06.014Z,100913.75
2023-02-24T03:45:35.816Z,100914.66
2023-02-24T03:48:03.725Z,100911.84
2023-02-24T03:50:32.508Z,100917.94
2023-02-24T03:53:31.441Z,100917.50
2023-02-24T03:56:22.245Z,100918.03
2023-02-24T03:59:15.334Z,100915.47
2023-02-24T04:01:51.103Z,100914.69
2023-02-24T04:04:30.429Z,100914.81
2023-02-24T04:07:10.062Z,100903.09
2023-02-24T04:10:15.554Z,100893.88
2023-02-24T04:12:50.282Z,100893.88
2023-02-24T04:15:23.991Z,100893.06
2023-02-24T04:18:07.287Z,100894.69
2023-02-24T04:20:35.381Z,100905.22
2023-02-24T04:23:13.096Z,100902.84
2023-02-24T04:25:40.498Z,100898.16
2023-02-24T04:28:10.562Z,100900.84
2023-02-24T04:30:40.950Z,100901.22
2023-02-24T04:33:08.260Z,100889.50
2023-02-24T04:35:35.778Z,100883.78
2023-02-24T04:38:03.737Z,100883.72
2023-02-24T04:40:31.486Z,100878.84
2023-02-24T04:42:59.060Z,100884.06
2023-02-24T04:45:29.257Z,100880.56
2023-02-24T04:48:01.147Z,100878.84
2023-02-24T04:50:33.585Z,100885.31
2023-02-24T04:53:14.872Z,100884.16
2023-02-24T04:55:48.987Z,100882.00
2023-02-24T04:58:26.086Z,100882.53
2023-02-24T05:00:54.495Z,100877.25
2023-02-24T05:03:23.202Z,100870.53
2023-02-24T05:06:15.212Z,100869.19
2023-02-24T05:08:42.830Z,100863.34
2023-02-24T05:11:34.996Z,100861.81
2023-02-24T05:14:04.695Z,100865.47
2023-02-24T05:16:32.505Z,100853.75
2023-02-24T05:19:18.771Z,100859.69
2023-02-24T05:21:46.921Z,100851.19
2023-02-24T05:24:17.237Z,100845.38
2023-02-24T05:26:44.963Z,100846.50
2023-02-24T05:29:13.301Z,100843.09
2023-02-24T05:31:41.303Z,100842.41
2023-02-24T05:34:09.044Z,100845.94
2023-02-24T05:36:40.671Z,100846.19
2023-02-24T05:39:12.004Z,100842.34
2023-02-24T05:41:42.328Z,100844.38
2023-02-24T05:44:23.866Z,100846.16
2023-02-24T05:46:56.900Z,100834.16
2023-02-24T05:49:33.281Z,100832.53
2023-02-24T05:52:01.960Z,100833.41
2023-02-24T05:54:35.836Z,100841.03
2023-02-24T05:57:09.352Z,100840.13
2023-02-24T05:59:37.391Z,100837.56
2023-02-24T06:02:09.672Z,100839.41
2023-02-24T06:04:45.739Z,100837.66
2023-02-24T06:07:14.311Z,100842.63
2023-02-24T06:09:45.461Z,100842.44
2023-02-24T06:12:16.625Z,100840.53
2023-02-24T06:14:45.194Z,100849.16
2023-02-24T06:17:15.244Z,100861.09
2023-02-24T06:19:43.553Z,100854.09
2023-02-24T06:22:13.389Z,100864.16
2023-02-24T06:24:44.472Z,100866.72
2023-02-24T06:27:19.307Z,100864.16
2023-02-24T06:29:50.166Z,100873.53
2023-02-24T06:32:22.846Z,100875.53
2023-02-24T06:34:52.091Z,100887.50
2023-02-24T06:37:20.110Z,100879.81
2023-02-24T06:39:48.106Z,100881.66
2023-02-24T06:42:16.116Z,100874.84
2023-02-24T06:44:43.967Z,100880.06
2023-02-24T06:47:14.520Z,100884.50
2023-02-24T06:49:42.970Z,100881.19
2023-02-24T06:54:44.861Z,100881.53
2023-02-24T06:57:12.950Z,100884.56
2023-02-24T06:59:41.288Z,100889.88
2023-02-24T07:02:11.148Z,100883.22
2023-02-24T07:04:45.948Z,100886.13
2023-02-24T07:07:17.863Z,100893.97
2023-02-24T07:09:48.814Z,100889.22
2023-02-24T07:12:21.255Z,100891.94
2023-02-24T07:14:50.586Z,100891.84
2023-02-24T07:17:20.724Z,100890.22
2023-02-24T07:19:49.332Z,100887.94
2023-02-24T07:22:17.715Z,100893.94
2023-02-24T07:24:46.555Z,100884.44
2023-02-24T07:27:22.734Z,100888.72
2023-02-24T07:29:53.730Z,100894.94
2023-02-24T07:32:22.669Z,100888.34
2023-02-24T07:34:51.320Z,100892.13
2023-02-24T07:37:20.755Z,100899.38
2023-02-24T07:39:49.404Z,100892.72
2023-02-24T07:42:18.319Z,100896.47
2023-02-24T07:44:49.347Z,100891.59
2023-02-24T07:47:17.714Z,100884.81
2023-02-24T07:49:45.988Z,100887.66
2023-02-24T07:52:14.267Z,100881.97
2023-02-24T07:54:43.369Z,100878.69
2023-02-24T07:57:14.343Z,100876.31
2023-02-24T07:59:45.406Z,100871.25
2023-02-24T08:02:14.103Z,100868.03
2023-02-24T08:04:48.386Z,100867.41
2023-02-24T08:07:17.311Z,100857.38
2023-02-24T08:09:45.650Z,100854.34
2023-02-24T08:12:18.398Z,100861.59
2023-02-24T08:14:51.003Z,100857.63
2023-02-24T08:17:23.307Z,100860.72
2023-02-24T08:20:01.185Z,100857.59
2023-02-24T08:22:37.559Z,100862.19
2023-02-24T08:25:07.397Z,100865.97
2023-02-24T08:27:39.167Z,100858.47
2023-02-24T08:30:09.775Z,100868.91
2023-02-24T08:32:45.130Z,100863.63
2023-02-24T08:35:20.446Z,100859.41
2023-02-24T08:38:09.793Z,100862.09
2023-02-24T08:40:50.304Z,100855.53
2023-02-24T08:43:33.272Z,100851.25
2023-02-24T08:46:19.165Z,100853.97
2023-02-24T08:48:50.204Z,100855.97
2023-02-24T08:51:23.546Z,100858.03
2023-02-24T08:53:55.747Z,100857.63
2023-02-24T08:56:26.495Z,100862.41
2023-02-24T08:59:05.804Z,100855.69
2023-02-24T09:01:36.919Z,100855.84
2023-02-24T09:04:08.765Z,100851.19
2023-02-24T09:06:37.538Z,100858.47
2023-02-24T09:09:18.921Z,100852.19
2023-02-24T09:12:10.691Z,100851.81
2023-02-24T09:14:38.309Z,100857.78
2023-02-24T09:17:11.423Z,100856.88
2023-02-24T09:19:52.611Z,100850.94
2023-02-24T09:22:33.093Z,100852.88
2023-02-24T09:25:19.187Z,100847.94
2023-02-24T09:27:48.312Z,100849.00
2023-02-24T09:30:35.479Z,100847.50
2023-02-24T09:33:42.370Z,100840.03
2023-02-24T09:36:44.956Z,100838.72
2023-02-24T09:39:14.878Z,100833.72
2023-02-24T09:42:18.154Z,100838.41
2023-02-24T09:45:11.485Z,100843.91
2023-02-24T09:47:40.161Z,100841.56
2023-02-24T09:50:55.151Z,100842.53
2023-02-24T09:53:14.791Z,100833.31
2023-02-24T09:56:17.869Z,100829.84
2023-02-24T09:59:07.321Z,100828.34
2023-02-24T10:01:36.973Z,100822.81
2023-02-24T10:04:49.178Z,100816.44
2023-02-24T10:07:19.237Z,100813.19
2023-02-24T10:10:19.903Z,100815.13
2023-02-24T10:12:53.912Z,100813.81
2023-02-24T10:15:41.157Z,100811.53
2023-02-24T10:18:27.451Z,100802.31
2023-02-24T10:21:48.369Z,100805.25
2023-02-24T10:24:24.550Z,100801.06
2023-02-24T10:27:16.851Z,100798.50
2023-02-24T10:30:05.868Z,100792.97
2023-02-24T10:32:51.255Z,100794.41
2023-02-24T10:35:20.692Z,100791.47
2023-02-24T10:37:49.308Z,100796.84
2023-02-24T10:40:26.502Z,100792.72
2023-02-24T10:43:10.759Z,100788.56
2023-02-24T10:45:45.243Z,100785.44
2023-02-24T10:48:42.745Z,100786.69
2023-02-24T10:51:20.141Z,100765.22
2023-02-24T10:54:08.857Z,100763.81
2023-02-24T10:56:55.644Z,100756.22
2023-02-24T10:59:48.275Z,100758.97
2023-02-24T11:02:29.725Z,100754.66
2023-02-24T11:05:03.556Z,100753.72
2023-02-24T11:07:45.405Z,100739.09
2023-02-24T11:10:25.903Z,100740.06
2023-02-24T11:13:25.885Z,100727.94
2023-02-24T11:16:12.370Z,100720.91
2023-02-24T11:18:40.101Z,100723.44
2023-02-24T11:21:09.436Z,100720.84
2023-02-24T11:23:45.156Z,100714.69
2023-02-24T11:26:21.563Z,100722.56
2023-02-24T11:29:17.542Z,100709.66
2023-02-24T11:32:18.951Z,100709.78
2023-02-24T11:34:51.736Z,100710.00
2023-02-24T11:37:43.094Z,100697.94
2023-02-24T11:40:19.801Z,100684.91
2023-02-24T11:42:56.210Z,100677.97
2023-02-24T11:45:43.157Z,100681.41
2023-02-24T11:48:25.335Z,100664.06
2023-02-24T11:51:06.514Z,100658.00
2023-02-24T11:53:58.063Z,100659.72
2023-02-24T11:56:31.434Z,100655.41
2023-02-24T11:59:30.782Z,100648.47
2023-02-24T12:02:17.604Z,100636.31
2023-02-24T12:04:56.697Z,100626.78
2023-02-24T12:07:54.728Z,100622.38
2023-02-24T12:10:47.693Z,100625.84
2023-02-24T12:13:41.011Z,100611.97
2023-02-24T12:16:08.006Z,100613.75
2023-02-24T12:18:37.352Z,100606.75
2023-02-24T12:21:24.961Z,100603.19
2023-02-24T12:23:53.782Z,100596.25
2023-02-24T12:26:25.227Z,100601.47
2023-02-24T12:29:16.248Z,100582.16
2023-02-24T12:31:54.499Z,100582.13
2023-02-24T12:34:36.232Z,100578.66
2023-02-24T12:37:24.520Z,100574.38
2023-02-24T12:40:01.753Z,100567.50
2023-02-24T12:43:02.299Z,100558.81
2023-02-24T12:45:46.375Z,100548.34
2023-02-24T12:48:28.814Z,100542.31
2023-02-24T12:51:21.511Z,100536.28
2023-02-24T12:54:09.755Z,100534.53
2023-02-24T12:57:00.911Z,100530.13
2023-02-24T12:59:29.475Z,100522.44
2023-02-24T13:02:30.556Z,100515.44
2023-02-24T13:05:08.657Z,100507.59
2023-02-24T13:07:39.696Z,100504.84
2023-02-24T13:10:36.760Z,100497.50
2023-02-24T13:13:15.690Z,100489.03
2023-02-24T13:16:10.225Z,100481.72
2023-02-24T13:18:39.667Z,100480.44
2023-02-24T13:21:15.787Z,100485.50
2023-02-24T13:23:43.468Z,100478.06
2023-02-24T13:26:10.568Z,100479.22
2023-02-24T13:28:38.523Z,100466.53
2023-02-24T13:31:10.351Z,100467.75
2023-02-24T13:33:42.192Z,100466.25
2023-02-24T13:36:36.321Z,100465.84
2023-02-24T13:39:03.262Z,100460.84
2023-02-24T13:41:30.221Z,100448.63
2023-02-24T13:43:58.469Z,100451.78
2023-02-24T13:46:26.655Z,100443.56
2023-02-24T13:49:14.571Z,100438.69
2023-02-24T13:51:50.571Z,100437.38
2023-02-24T13:54:29.368Z,100436.97
2023-02-24T13:57:34.844Z,100428.28
2023-02-24T14:00:12.619Z,100425.16
2023-02-24T14:02:42.902Z,100423.72
2023-02-24T14:05:17.413Z,100414.59
2023-02-24T14:07:44.717Z,100413.09
2023-02-24T14:10:23.252Z,100408.72
2023-02-24T14:12:51.569Z,100412.72
2023-02-24T14:15:26.253Z,100401.66
2023-02-24T14:18:20.256Z,100402.72
2023-02-24T14:20:47.959Z,100397.94
2023-02-24T14:23:22.394Z,100393.88
2023-02-24T14:25:52.800Z,100396.06
2023-02-24T14:28:23.349Z,100390.13
2023-02-24T14:30:55.012Z,100386.75
2023-02-24T14:33:33.137Z,100392.00
2023-02-24T14:36:01.315Z,100397.31
2023-02-24T14:38:32.319Z,100390.53
2023-02-24T14:40:59.758Z,100391.44
2023-02-24T14:43:26.960Z,100388.84
2023-02-24T14:45:54.804Z,100383.75
2023-02-24T14:48:52.534Z,100388.22
2023-02-24T14:51:25.109Z,100372.63
2023-02-24T14:53:54.645Z,100376.09
2023-02-24T14:56:22.578Z,100374.34
2023-02-24T14:58:54.819Z,100369.16
2023-02-24T15:01:34.627Z,100362.25
2023-02-24T15:04:11.342Z,100364.06
2023-02-24T15:06:41.075Z,100360.66
2023-02-24T15:09:42.644Z,100364.16
2023-02-24T15:12:29.917Z,100354.59
2023-02-24T15:14:57.806Z,100350.28
2023-02-24T15:17:25.354Z,100352.00
2023-02-24T15:19:55.846Z,100343.34
2023-02-24T15:22:25.822Z,100339.91
2023-02-24T15:24:55.848Z,100337.28
2023-02-24T15:27:27.988Z,100330.38
2023-02-24T15:30:07.982Z,100331.22
2023-02-24T15:32:37.710Z,100320.81
2023-02-24T15:35:05.610Z,100321.69
2023-02-24T15:37:42.062Z,100316.50
2023-02-24T15:40:21.731Z,100321.69
2023-02-24T15:42:56.780Z,100314.78
2023-02-24T15:45:23.782Z,100311.31
2023-02-24T15:47:55.611Z,100305.22
2023-02-24T15:50:23.619Z,100301.78
2023-02-24T15:52:51.222Z,100307.81
2023-02-24T15:55:20.000Z,100305.22
2023-02-24T15:57:48.405Z,100309.53
2023-02-24T16:00:18.354Z,100300.88
2023-02-24T16:02:47.144Z,100293.09
2023-02-24T16:05:14.710Z,100296.53
2023-02-24T16:07:44.205Z,100293.97
2023-02-24T16:10:27.725Z,100289.63
2023-02-24T16:12:56.151Z,100291.38
2023-02-24T16:15:31.921Z,100287.88
2023-02-24T16:17:59.442Z,100287.00
2023-02-24T16:20:28.505Z,100287.84
2023-02-24T16:22:57.361Z,100280.91
2023-02-24T16:25:24.893Z,100286.94
2023-02-24T16:27:57.387Z,100279.94
2023-02-24T16:30:30.528Z,100269.56
2023-02-24T16:32:59.584Z,100281.63
2023-02-24T16:35:31.522Z,100273.81
2023-02-24T16:38:00.868Z,100268.59
2023-02-24T16:40:33.650Z,100270.28
2023-02-24T16:43:01.697Z,100262.47
2023-02-24T16:45:29.890Z,100266.72
2023-02-24T16:47:59.121Z,100273.56
2023-02-24T16:50:31.759Z,100274.38
2023-02-24T16:52:59.985Z,100281.25
2023-02-24T16:55:27.579Z,100276.91
2023-02-24T16:57:55.562Z,100280.28
2023-02-24T17:00:24.398Z,100283.72
2023-02-24T17:02:52.375Z,100280.22
2023-02-24T17:05:21.032Z,100281.13
2023-02-24T17:07:48.974Z,100282.81
2023-02-24T17:10:17.772Z,100285.38
2023-02-24T17:12:45.455Z,100282.81
2023-02-24T17:15:17.397Z,100296.53
2023-02-24T17:17:44.941Z,100288.75
2023-02-24T17:20:16.080Z,100283.56
2023-02-24T17:22:44.132Z,100293.03
2023-02-24T17:25:19.079Z,100294.72
2023-02-24T17:27:47.366Z,100285.19
2023-02-24T17:30:15.957Z,100291.22
2023-02-24T17:32:44.157Z,100283.41
2023-02-24T17:35:12.168Z,100286.06
2023-02-24T17:37:40.319Z,100283.47
2023-02-24T17:40:09.789Z,100286.06
2023-02-24T17:42:37.759Z,100286.03
2023-02-24T17:45:08.176Z,100276.50
2023-02-24T17:47:36.579Z,100279.03
2023-02-24T17:50:04.192Z,100282.50
2023-02-24T17:52:32.156Z,100285.91
2023-02-24T17:55:00.013Z,100287.63
2023-02-24T17:57:29.474Z,100288.50
2023-02-24T17:59:57.120Z,100276.38
2023-02-24T18:02:24.560Z,100272.94
2023-02-24T18:04:52.844Z,100274.63
2023-02-24T18:07:21.239Z,100282.38
2023-02-24T18:09:49.266Z,100274.63
2023-02-24T18:12:18.704Z,100274.56
2023-02-24T18:14:51.354Z,100275.41
2023-02-24T18:17:24.506Z,100260.72
2023-02-24T18:19:55.613Z,100259.84
2023-02-24T18:22:23.237Z,100257.25
2023-02-24T18:24:51.124Z,100259.81
2023-02-24T18:27:17.992Z,100264.13
2023-02-24T18:29:45.966Z,100252.00
2023-02-24T18:32:14.046Z,100260.63
2023-02-24T18:34:41.760Z,100258.91
2023-02-24T18:37:09.380Z,100257.19
2023-02-24T18:39:37.661Z,100252.09
2023-02-24T18:42:05.954Z,100249.41
2023-02-24T18:44:33.884Z,100246.88
2023-02-24T18:47:01.960Z,100252.00
2023-02-24T18:49:29.996Z,100242.53
2023-02-24T18:51:59.662Z,100236.50
2023-02-24T18:54:27.304Z,100237.34
2023-02-24T18:56:55.317Z,100229.56
2023-02-24T18:59:23.276Z,100231.28
2023-02-24T19:01:51.548Z,100219.22
2023-02-24T19:04:19.583Z,100218.34
2023-02-24T19:06:49.121Z,100211.44
2023-02-24T19:09:16.549Z,100215.66
2023-02-24T19:11:44.343Z,100207.88
2023-02-24T19:14:12.210Z,100207.84
2023-02-24T19:16:40.432Z,100209.56
2023-02-24T19:19:08.075Z,100214.69
2023-02-24T19:21:35.899Z,100208.66
2023-02-24T19:24:08.117Z,100212.03
2023-02-24T19:26:35.765Z,100209.41
2023-02-24T19:29:04.062Z,100210.25
2023-02-24T19:31:32.567Z,100215.38
2023-02-24T19:34:23.673Z,100217.09
2023-02-24T19:36:51.603Z,100215.47
2023-02-24T19:39:19.205Z,100218.84
2023-02-24T19:41:49.473Z,100211.94
2023-02-24T19:44:16.930Z,100217.06
2023-02-24T19:46:44.794Z,100215.31
2023-02-24T19:49:12.369Z,100218.91
2023-02-24T19:51:39.872Z,100214.50
2023-02-24T19:54:08.219Z,100213.66
2023-02-24T19:56:36.790Z,100211.03
2023-02-24T19:59:05.909Z,100209.34
2023-02-24T20:01:33.624Z,100206.78
2023-02-24T20:04:02.485Z,100202.53
2023-02-24T20:06:31.924Z,100201.59
2023-02-24T20:08:59.980Z,100198.19
2023-02-24T20:11:29.761Z,100201.50
2023-02-24T20:13:56.976Z,100189.41
2023-02-24T20:16:26.264Z,100191.09
2023-02-24T20:18:55.564Z,100194.69
2023-02-24T20:21:23.751Z,100188.59
2023-02-24T20:23:51.348Z,100191.94
2023-02-24T20:26:19.827Z,100187.66
2023-02-24T20:28:47.979Z,100195.44
2023-02-24T20:31:17.642Z,100186.78
2023-02-24T20:33:45.598Z,100192.72
2023-02-24T20:36:24.381Z,100192.69
2023-02-24T20:38:52.676Z,100184.06
2023-02-24T20:41:20.801Z,100190.00
2023-02-24T20:43:49.142Z,100177.84
2023-02-24T20:46:24.268Z,100167.50
2023-02-24T20:48:53.381Z,100169.28
2023-02-24T20:51:20.991Z,100169.28
2023-02-24T20:53:57.337Z,100164.16
2023-02-24T20:56:26.869Z,100165.03
2023-02-24T20:59:00.384Z,100163.31
2023-02-24T21:01:27.954Z,100167.63
2023-02-24T21:03:55.973Z,100167.63
2023-02-24T21:06:23.857Z,100163.31
2023-02-24T21:08:53.416Z,100167.59
2023-02-24T21:11:21.592Z,100163.31
2023-02-24T21:13:49.321Z,100159.88
2023-02-24T21:16:18.069Z,100161.59
2023-02-24T21:18:46.594Z,100158.19
2023-02-24T21:21:15.380Z,100148.63
2023-02-24T21:23:42.553Z,100147.78
2023-02-24T21:26:09.840Z,100151.25
2023-02-24T21:28:37.459Z,100142.63
2023-02-24T21:31:11.677Z,100144.34
2023-02-24T21:33:39.896Z,100140.09
2023-02-24T21:36:09.832Z,100137.53
2023-02-24T21:38:38.275Z,100139.25
2023-02-24T21:41:07.126Z,100137.47
2023-02-24T21:43:35.197Z,100133.97
2023-02-24T21:46:03.681Z,100133.06
2023-02-24T21:48:31.563Z,100135.63
2023-02-24T21:51:00.549Z,100132.13
2023-02-24T21:53:28.545Z,100129.47
2023-02-24T21:56:04.556Z,100126.81
2023-02-24T21:58:32.878Z,100121.63
2023-02-24T22:01:01.238Z,100120.75
2023-02-24T22:03:29.218Z,100117.22
2023-02-24T22:05:56.863Z,100124.88
2023-02-24T22:08:24.961Z,100119.66
2023-02-24T22:10:59.759Z,100125.66
2023-02-24T22:13:27.594Z,100116.09
2023-02-24T22:15:55.195Z,100108.31
2023-02-24T22:18:23.207Z,100110.00
2023-02-24T22:20:51.142Z,100110.81
2023-02-24T22:23:18.992Z,100105.63
2023-02-24T22:25:46.926Z,100100.47
2023-02-24T22:28:14.893Z,100091.03
2023-02-24T22:30:42.889Z,100088.41
2023-02-24T22:33:10.863Z,100084.13
2023-02-24T22:35:38.900Z,100072.91
2023-02-24T22:38:06.519Z,100065.16
2023-02-24T22:40:34.052Z,100066.00
2023-02-24T22:43:01.805Z,100066.84
2023-02-24T22:45:29.892Z,100052.22
2023-02-24T22:47:59.417Z,100060.03
2023-02-24T22:50:27.928Z,100065.97
2023-02-24T22:52:56.196Z,100054.72
2023-02-24T22:55:25.115Z,100047.81
2023-02-24T22:57:53.113Z,100044.25
2023-02-24T23:00:23.313Z,100044.25
2023-02-24T23:02:50.872Z,100037.31
2023-02-24T23:05:19.041Z,100031.28
2023-02-24T23:07:48.575Z,100033.03
2023-02-24T23:10:17.075Z,100030.47
2023-02-24T23:12:44.971Z,100025.31
2023-02-24T23:15:13.819Z,100027.00
2023-02-24T23:17:42.300Z,100030.41
2023-02-24T23:20:12.892Z,100031.19
2023-02-24T23:22:40.902Z,100020.88
2023-02-24T23:25:31.172Z,100017.38
2023-02-24T23:27:59.462Z,100007.06
2023-02-24T23:30:27.042Z,100000.25
2023-02-24T23:32:54.994Z,99999.34
2023-02-24T23:35:22.581Z,100007.81
2023-02-24T23:37:50.798Z,100006.09
2023-02-24T23:40:25.904Z,100011.03
2023-02-24T23:42:53.322Z,100008.34
2023-02-24T23:45:21.276Z,100014.34
2023-02-24T23:47:49.234Z,100005.75
2023-02-24T23:50:18.449Z,100006.59
2023-02-24T23:52:46.085Z,100008.22
2023-02-24T23:55:13.813Z,100003.19
2023-02-24T23:57:42.210Z,99996.34
